Time;durP1;ratioP1;P1;durP2;ratioP2;P2;SDS_P1;SDS_P2;PMS_P1;PMS_P2;Temp;Humidity;BMP_temperature;BMP_pressure;BME280_temperature;BME280_humidity;BME280_pressure;Samples;Min_cycle;Max_cycle;Signal;HPM_P1;HPM_P2
2021/03/27 00:01:01;;;;;;;5.95;4.13;;;11.70;51.70;;;;;;5104222;28;20059;-85
2021/03/27 00:03:59;;;;;;;7.43;4.40;;;11.70;52.10;;;;;;5101903;28;20024;-84
2021/03/27 00:06:32;;;;;;;7.18;4.47;;;11.70;52.10;;;;;;5054197;28;20050;-84
2021/03/27 00:09:24;;;;;;;5.75;4.10;;;11.80;52.20;;;;;;5096627;28;20031;-84
2021/03/27 00:11:56;;;;;;;7.15;4.65;;;11.80;52.00;;;;;;5099058;28;20027;-84
2021/03/27 00:14:48;;;;;;;8.98;4.47;;;11.90;52.10;;;;;;5098283;28;20023;-85
2021/03/27 00:17:21;;;;;;;7.22;4.35;;;11.80;52.00;;;;;;5097300;28;20115;-84
2021/03/27 00:19:59;;;;;;;9.38;4.55;;;11.80;52.10;;;;;;5098841;28;20032;-85
2021/03/27 00:22:34;;;;;;;8.88;4.65;;;11.80;52.20;;;;;;5099382;28;20096;-84
2021/03/27 00:25:25;;;;;;;6.90;4.45;;;11.80;52.40;;;;;;5105253;28;20027;-84
2021/03/27 00:28:10;;;;;;;7.75;4.32;;;11.80;52.60;;;;;;5104087;28;20039;-84
2021/03/27 00:30:51;;;;;;;5.82;4.13;;;11.70;52.60;;;;;;5094098;28;20024;-85
2021/03/27 00:33:20;;;;;;;7.70;4.20;;;11.80;52.60;;;;;;5121043;28;20088;-85
2021/03/27 00:36:04;;;;;;;10.65;4.90;;;11.80;52.70;;;;;;5106577;28;20031;-84
2021/03/27 00:38:36;;;;;;;8.48;4.72;;;11.80;52.80;;;;;;5087016;28;20032;-83
2021/03/27 00:41:03;;;;;;;8.60;4.32;;;11.80;52.80;;;;;;5109406;27;20086;-84
2021/03/27 00:43:32;;;;;;;7.07;4.28;;;11.80;52.70;;;;;;5110909;28;20099;-84
2021/03/27 00:46:01;;;;;;;8.70;4.90;;;11.80;52.90;;;;;;5107869;28;20477;-86
2021/03/27 00:48:38;;;;;;;9.93;4.50;;;11.80;53.10;;;;;;5107413;28;20095;-85
2021/03/27 00:51:43;;;;;;;7.45;4.55;;;11.80;53.20;;;;;;5123476;28;20050;-84
2021/03/27 00:54:36;;;;;;;6.45;4.82;;;11.80;53.20;;;;;;5095069;28;20036;-84
2021/03/27 00:57:10;;;;;;;6.88;4.63;;;11.80;53.40;;;;;;5098104;28;20039;-85
2021/03/27 00:59:57;;;;;;;9.65;4.60;;;11.70;53.30;;;;;;5120539;27;20039;-85
2021/03/27 01:02:23;;;;;;;9.77;4.93;;;11.80;53.40;;;;;;5102697;28;20393;-84
2021/03/27 01:04:50;;;;;;;8.38;4.75;;;11.70;53.40;;;;;;5101718;28;20040;-84
2021/03/27 01:07:19;;;;;;;8.30;5.30;;;11.60;53.60;;;;;;5091986;28;20033;-85
2021/03/27 01:09:57;;;;;;;9.80;5.20;;;11.60;53.90;;;;;;5090237;28;20497;-83
2021/03/27 01:12:32;;;;;;;7.78;4.90;;;11.50;54.00;;;;;;5096973;28;20032;-84
2021/03/27 01:15:12;;;;;;;9.60;5.13;;;11.50;54.20;;;;;;5110042;28;20030;-85
2021/03/27 01:17:46;;;;;;;7.78;4.70;;;11.40;54.30;;;;;;5100296;28;20394;-84
2021/03/27 01:20:12;;;;;;;8.45;4.60;;;11.40;54.30;;;;;;5099516;28;20020;-84
2021/03/27 01:22:39;;;;;;;7.40;4.97;;;11.40;54.40;;;;;;5087891;28;20509;-83
2021/03/27 01:25:06;;;;;;;9.27;5.32;;;11.30;54.60;;;;;;5099831;28;20017;-85
2021/03/27 01:27:55;;;;;;;11.27;5.18;;;11.30;54.90;;;;;;5094332;28;20031;-85
2021/03/27 01:30:23;;;;;;;8.38;4.88;;;11.30;55.20;;;;;;5111218;28;20066;-84
2021/03/27 01:33:12;;;;;;;6.82;4.57;;;11.20;55.00;;;;;;5112665;28;20074;-84
2021/03/27 01:36:11;;;;;;;11.07;5.22;;;11.20;55.30;;;;;;5086933;28;20510;-84
2021/03/27 01:38:40;;;;;;;8.38;4.57;;;11.20;55.50;;;;;;5092050;28;20066;-85
2021/03/27 01:41:32;;;;;;;10.70;5.15;;;11.20;55.80;;;;;;5099232;28;20051;-85
2021/03/27 01:44:15;;;;;;;9.48;4.80;;;11.20;56.00;;;;;;5097006;28;20024;-85
2021/03/27 01:47:10;;;;;;;;;;;11.20;56.50;;;;;;5100906;28;20039;-84
2021/03/27 01:50:13;;;;;;;7.85;4.90;;;11.20;55.70;;;;;;5079012;28;19908;-85
2021/03/27 01:53:07;;;;;;;9.23;4.43;;;11.20;56.60;;;;;;5100446;28;20123;-85
2021/03/27 01:55:36;;;;;;;7.85;4.55;;;11.20;56.70;;;;;;5099047;28;20020;-85
2021/03/27 01:58:32;;;;;;;6.25;4.35;;;11.20;56.80;;;;;;5102932;28;20024;-85
2021/03/27 02:01:10;;;;;;;9.77;5.35;;;11.30;57.20;;;;;;5113806;27;20023;-83
2021/03/27 02:03:39;;;;;;;8.32;4.80;;;11.30;57.40;;;;;;5104626;28;20024;-85
2021/03/27 02:06:13;;;;;;;6.93;4.57;;;11.40;57.60;;;;;;5097317;28;20024;-84
2021/03/27 02:08:56;;;;;;;6.57;3.92;;;11.40;57.60;;;;;;5103026;28;20027;-84
2021/03/27 02:11:57;;;;;;;5.28;3.83;;;11.40;58.30;;;;;;5105587;28;20024;-85
2021/03/27 02:14:51;;;;;;;5.95;4.28;;;11.50;58.60;;;;;;5095113;28;20119;-85
2021/03/27 02:17:23;;;;;;;6.90;4.13;;;11.50;59.00;;;;;;5104845;27;21639;-83
2021/03/27 02:20:26;;;;;;;7.22;3.80;;;11.50;59.10;;;;;;5096466;28;20031;-85
2021/03/27 02:23:20;;;;;;;4.65;3.50;;;11.50;60.00;;;;;;5123734;28;20381;-84
2021/03/27 02:25:52;;;;;;;5.82;4.10;;;11.60;60.70;;;;;;5101520;28;20016;-85
2021/03/27 02:28:38;;;;;;;8.40;4.15;;;11.50;60.90;;;;;;5095353;28;20020;-83
2021/03/27 02:31:21;;;;;;;4.70;3.40;;;11.50;61.80;;;;;;5089648;28;20031;-84
2021/03/27 02:33:49;;;;;;;7.03;4.10;;;11.50;62.10;;;;;;5096241;28;20011;-85
2021/03/27 02:36:22;;;;;;;6.10;4.07;;;11.40;63.00;;;;;;5099919;28;20460;-85
2021/03/27 02:38:53;;;;;;;5.55;3.85;;;11.40;64.20;;;;;;5111479;28;20039;-84
2021/03/27 02:41:39;;;;;;;6.70;3.40;;;11.30;64.70;;;;;;5103600;28;20031;-85
2021/03/27 02:44:28;;;;;;;5.78;3.75;;;11.20;65.30;;;;;;5095041;28;20011;-85
2021/03/27 02:47:04;;;;;;;5.05;3.72;;;11.20;65.00;;;;;;5102373;28;20138;-85
2021/03/27 02:49:48;;;;;;;5.22;4.53;;;11.10;66.30;;;;;;5105238;28;20027;-84
2021/03/27 02:52:16;;;;;;;4.80;4.10;;;11.00;67.70;;;;;;5090327;28;20032;-85
2021/03/27 02:54:57;;;;;;;5.35;3.55;;;11.00;67.80;;;;;;5090710;28;20024;-85
2021/03/27 02:58:06;;;;;;;6.88;3.90;;;10.90;68.70;;;;;;5101072;27;20036;-85
2021/03/27 03:00:58;;;;;;;4.97;4.32;;;10.80;68.50;;;;;;5117620;27;20023;-85
2021/03/27 03:03:35;;;;;;;5.25;4.20;;;10.80;69.70;;;;;;5086069;28;20042;-85
2021/03/27 03:06:44;;;;;;;5.10;3.88;;;10.70;70.40;;;;;;5100318;28;20020;-85
2021/03/27 03:09:31;;;;;;;5.28;4.68;;;10.70;71.20;;;;;;5092189;28;20032;-85
2021/03/27 03:11:57;;;;;;;6.88;4.25;;;10.70;71.70;;;;;;5115891;27;20027;-84
2021/03/27 03:14:22;;;;;;;6.28;4.47;;;10.60;71.20;;;;;;5114441;28;20028;-83
2021/03/27 03:17:10;;;;;;;6.05;4.45;;;10.60;71.60;;;;;;5090364;28;20076;-85
2021/03/27 03:20:04;;;;;;;4.65;4.07;;;10.50;71.80;;;;;;5121838;28;20027;-85
2021/03/27 03:22:57;;;;;;;8.07;3.90;;;10.50;71.20;;;;;;5092062;28;20028;-84
2021/03/27 03:25:28;;;;;;;6.28;4.50;;;10.50;71.00;;;;;;5104256;28;20024;-83
2021/03/27 03:27:58;;;;;;;5.57;3.95;;;10.50;71.70;;;;;;5100985;28;20016;-83
2021/03/27 03:30:50;;;;;;;4.93;3.80;;;10.50;71.60;;;;;;5101915;28;20043;-83
2021/03/27 03:34:01;;;;;;;5.05;4.47;;;10.50;71.70;;;;;;5108385;28;20062;-83
2021/03/27 03:37:01;;;;;;;5.07;3.97;;;10.50;72.50;;;;;;5107011;27;20438;-83
2021/03/27 03:39:36;;;;;;;8.73;4.75;;;10.50;72.50;;;;;;5105945;28;20107;-84
2021/03/27 03:42:33;;;;;;;7.50;4.07;;;10.50;72.50;;;;;;5094643;28;20020;-85
2021/03/27 03:45:11;;;;;;;7.55;4.30;;;10.40;72.20;;;;;;5098394;28;20019;-85
2021/03/27 03:48:03;;;;;;;6.45;4.30;;;10.40;72.80;;;;;;5097512;28;20028;-85
2021/03/27 03:50:44;;;;;;;5.97;4.57;;;10.40;72.70;;;;;;5092062;28;20032;-85
2021/03/27 03:53:21;;;;;;;6.07;4.25;;;10.40;72.40;;;;;;5091110;28;20019;-85
2021/03/27 03:55:53;;;;;;;6.40;4.50;;;10.40;72.60;;;;;;5085537;28;20036;-85
2021/03/27 03:58:32;;;;;;;7.22;4.22;;;10.40;72.60;;;;;;5088416;28;20020;-83
2021/03/27 04:01:03;;;;;;;7.05;4.35;;;10.40;72.70;;;;;;5107070;28;20073;-85
2021/03/27 04:03:40;;;;;;;7.78;3.95;;;10.40;73.00;;;;;;5095771;28;20020;-85
2021/03/27 04:06:19;;;;;;;5.75;4.13;;;10.40;73.10;;;;;;5086937;28;20370;-85
2021/03/27 04:09:18;;;;;;;5.75;3.95;;;10.30;73.00;;;;;;5096940;28;20020;-85
2021/03/27 04:11:43;;;;;;;6.47;3.85;;;10.30;73.00;;;;;;5105832;28;20028;-85
2021/03/27 04:14:33;;;;;;;4.28;3.35;;;10.30;73.50;;;;;;5099235;28;20373;-84
2021/03/27 04:17:06;;;;;;;4.30;3.42;;;10.20;74.40;;;;;;5091233;28;20110;-85
2021/03/27 04:19:41;;;;;;;4.70;3.72;;;10.10;75.20;;;;;;5111975;28;20021;-85
2021/03/27 04:22:25;;;;;;;4.55;3.10;;;10.10;75.40;;;;;;5104792;28;20508;-83
2021/03/27 04:25:02;;;;;;;6.18;3.25;;;10.10;76.10;;;;;;5097856;28;20013;-85
2021/03/27 04:27:37;;;;;;;3.33;3.03;;;10.00;75.50;;;;;;5086756;28;20024;-84
2021/03/27 04:30:12;;;;;;;4.20;1.90;;;9.90;76.30;;;;;;5093786;28;20273;-85
2021/03/27 04:32:53;;;;;;;2.13;1.95;;;9.90;75.70;;;;;;5095576;28;20179;-85
2021/03/27 04:35:36;;;;;;;2.15;1.95;;;9.90;75.20;;;;;;5115449;28;20051;-84
2021/03/27 04:38:16;;;;;;;1.58;1.48;;;9.80;75.00;;;;;;5099509;28;20024;-83
2021/03/27 04:40:51;;;;;;;1.90;1.38;;;9.80;74.80;;;;;;5098123;28;20030;-85
2021/03/27 04:43:31;;;;;;;2.88;1.60;;;9.70;74.60;;;;;;5098608;28;20028;-84
2021/03/27 04:46:08;;;;;;;1.27;1.27;;;9.70;74.40;;;;;;5094759;28;20056;-85
2021/03/27 04:49:01;;;;;;;2.40;1.65;;;9.60;74.30;;;;;;5099110;28;20046;-85
2021/03/27 04:51:54;;;;;;;2.80;1.30;;;9.60;74.30;;;;;;5099967;28;20020;-86
2021/03/27 04:54:49;;;;;;;3.10;1.50;;;9.50;73.90;;;;;;5104706;28;20024;-84
2021/03/27 04:57:32;;;;;;;1.95;1.70;;;9.50;74.10;;;;;;5107228;28;20390;-85
2021/03/27 05:00:22;;;;;;;1.55;1.45;;;9.40;74.10;;;;;;5111850;27;20529;-84
2021/03/27 05:03:08;;;;;;;2.78;1.55;;;9.30;74.00;;;;;;5109724;28;20154;-85
2021/03/27 05:05:54;;;;;;;2.63;1.77;;;9.30;74.00;;;;;;5089008;28;20474;-85
2021/03/27 05:08:45;;;;;;;2.35;1.73;;;9.30;73.80;;;;;;5094082;28;20030;-84
2021/03/27 05:12:00;;;;;;;2.65;1.58;;;9.40;73.90;;;;;;5111429;28;20032;-84
2021/03/27 05:14:33;;;;;;;2.20;1.60;;;9.30;74.00;;;;;;5025650;28;20033;-85
2021/03/27 05:17:33;;;;;;;2.13;1.80;;;9.30;73.70;;;;;;5083633;28;20027;-85
2021/03/27 05:20:20;;;;;;;3.03;2.17;;;9.30;74.10;;;;;;5104060;28;20035;-84
2021/03/27 05:23:08;;;;;;;2.80;1.88;;;9.20;74.40;;;;;;5091964;28;20024;-85
2021/03/27 05:25:42;;;;;;;2.08;1.88;;;9.20;74.60;;;;;;5098786;28;20027;-86
2021/03/27 05:28:34;;;;;;;2.47;1.95;;;9.20;74.60;;;;;;5094421;22;20391;-64
2021/03/27 05:31:41;;;;;;;3.85;1.58;;;9.10;74.90;;;;;;5050699;28;20033;-64
2021/03/27 05:34:13;;;;;;;0.93;0.90;;;9.00;74.40;;;;;;5057833;28;20104;-65
2021/03/27 05:37:05;;;;;;;0.87;0.87;;;8.90;73.70;;;;;;5056665;28;20415;-68
2021/03/27 05:39:40;;;;;;;0.90;0.90;;;8.80;73.50;;;;;;5046719;28;20295;-68
2021/03/27 05:42:20;;;;;;;1.10;1.00;;;8.70;73.20;;;;;;5051793;28;20017;-68
2021/03/27 05:45:05;;;;;;;0.70;0.70;;;8.60;72.70;;;;;;5046531;28;20025;-68
2021/03/27 05:47:57;;;;;;;1.25;1.13;;;8.50;72.90;;;;;;5055380;28;20122;-68
2021/03/27 05:50:28;;;;;;;0.93;0.80;;;8.40;72.80;;;;;;5054141;28;20052;-68
2021/03/27 05:53:05;;;;;;;1.50;0.97;;;8.30;72.70;;;;;;5073109;28;20020;-68
2021/03/27 05:55:37;;;;;;;1.10;1.00;;;8.30;72.90;;;;;;5053602;28;20032;-68
2021/03/27 05:58:30;;;;;;;1.00;1.00;;;8.20;72.90;;;;;;5054846;28;20028;-67
2021/03/27 06:01:24;;;;;;;1.48;1.13;;;8.20;73.10;;;;;;5047758;28;20055;-68
2021/03/27 06:04:11;;;;;;;1.13;0.98;;;8.10;73.20;;;;;;5035842;28;20031;-67
2021/03/27 06:07:15;;;;;;;1.00;1.00;;;8.00;73.00;;;;;;5055981;28;20024;-68
2021/03/27 06:09:40;;;;;;;;;;;7.90;72.80;;;;;;5061863;28;20017;-68
2021/03/27 06:12:24;;;;;;;1.92;0.90;;;7.80;72.50;;;;;;5054180;28;19920;-67
2021/03/27 06:15:23;;;;;;;0.80;0.80;;;7.80;72.70;;;;;;5053607;28;20108;-68
2021/03/27 06:18:04;;;;;;;0.80;0.80;;;7.80;72.70;;;;;;5050275;28;20059;-67
2021/03/27 06:20:51;;;;;;;1.13;1.02;;;7.70;72.60;;;;;;5041000;28;20028;-68
2021/03/27 06:23:39;;;;;;;0.80;0.80;;;7.70;72.50;;;;;;5054640;28;20155;-67
2021/03/27 06:26:29;;;;;;;0.80;0.73;;;7.60;72.50;;;;;;5054685;28;20025;-68
2021/03/27 06:29:25;;;;;;;0.80;0.80;;;7.60;72.60;;;;;;5046121;28;20021;-67
2021/03/27 06:32:15;;;;;;;0.70;0.70;;;7.60;72.70;;;;;;5052272;28;20032;-67
2021/03/27 06:34:45;;;;;;;1.00;1.00;;;7.60;72.50;;;;;;5052793;28;20550;-67
2021/03/27 06:37:44;;;;;;;0.93;0.93;;;7.60;72.50;;;;;;5054174;28;20031;-67
2021/03/27 06:40:34;;;;;;;1.02;1.02;;;7.70;72.50;;;;;;5039199;28;20025;-68
2021/03/27 06:43:00;;;;;;;1.00;1.00;;;7.70;72.30;;;;;;5044871;28;20032;-67
2021/03/27 06:46:01;;;;;;;0.80;0.80;;;7.70;71.90;;;;;;5047723;28;20350;-67
2021/03/27 06:48:41;;;;;;;0.80;0.80;;;7.70;71.80;;;;;;5036561;28;20510;-67
2021/03/27 06:51:49;;;;;;;0.60;0.60;;;7.70;71.60;;;;;;5053304;28;20033;-67
2021/03/27 06:54:32;;;;;;;1.08;0.80;;;7.80;71.40;;;;;;5045517;28;20052;-68
2021/03/27 06:57:03;;;;;;;1.05;0.80;;;7.80;71.30;;;;;;5051509;28;20037;-68
2021/03/27 07:00:10;;;;;;;1.75;0.70;;;7.80;70.70;;;;;;5055152;28;20439;-68
2021/03/27 07:02:51;;;;;;;2.55;1.65;;;7.80;70.90;;;;;;5044150;28;20024;-68
2021/03/27 07:05:32;;;;;;;1.92;0.80;;;7.70;70.60;;;;;;5038638;28;20078;-68
2021/03/27 07:08:34;;;;;;;0.63;0.63;;;7.70;69.90;;;;;;5051767;28;20337;-67
2021/03/27 07:11:28;;;;;;;0.82;0.82;;;7.70;69.60;;;;;;5053019;28;20111;-68
2021/03/27 07:14:14;;;;;;;1.08;0.80;;;7.60;69.00;;;;;;5052202;28;20366;-68
2021/03/27 07:17:12;;;;;;;1.00;0.60;;;7.60;68.80;;;;;;5038646;28;20025;-68
2021/03/27 07:19:59;;;;;;;0.95;0.55;;;7.60;68.20;;;;;;5047655;28;20044;-67
2021/03/27 07:23:03;;;;;;;2.35;0.70;;;7.60;68.00;;;;;;5048674;28;20031;-68
2021/03/27 07:25:59;;;;;;;3.40;0.80;;;7.70;68.00;;;;;;5022437;28;20036;-67
2021/03/27 07:28:28;;;;;;;3.85;1.40;;;7.80;67.40;;;;;;5052029;28;20024;-67
2021/03/27 07:31:08;;;;;;;1.88;0.60;;;7.80;66.80;;;;;;5036571;28;20028;-68
2021/03/27 07:33:53;;;;;;;0.95;0.75;;;7.90;66.90;;;;;;5047419;28;20551;-67
2021/03/27 07:36:36;;;;;;;1.73;0.70;;;8.00;66.80;;;;;;5053318;28;20036;-67
2021/03/27 07:39:18;;;;;;;2.58;0.70;;;8.10;66.20;;;;;;5053010;28;20064;-68
2021/03/27 07:42:15;;;;;;;1.83;0.85;;;8.10;66.10;;;;;;5050448;28;20020;-67
2021/03/27 07:45:18;;;;;;;1.08;0.70;;;8.20;66.00;;;;;;5051945;28;20024;-68
2021/03/27 07:47:44;;;;;;;;;;;8.20;65.10;;;;;;5047148;28;20012;-67
2021/03/27 07:50:40;;;;;;;2.63;0.80;;;8.20;64.20;;;;;;5051733;28;19912;-68
2021/03/27 07:53:34;;;;;;;3.33;0.90;;;8.30;63.60;;;;;;5052263;28;20130;-68
2021/03/27 07:56:24;;;;;;;0.60;0.55;;;8.60;63.70;;;;;;5039381;28;20178;-68
2021/03/27 07:59:18;;;;;;;2.78;0.90;;;8.50;63.30;;;;;;5049320;28;20024;-68
2021/03/27 08:02:04;;;;;;;0.60;0.60;;;8.30;63.30;;;;;;5047431;28;20040;-68
2021/03/27 08:04:57;;;;;;;0.82;0.57;;;8.20;63.80;;;;;;5017992;28;20127;-68
2021/03/27 08:07:34;;;;;;;1.40;0.70;;;8.20;63.80;;;;;;5052685;28;20028;-67
2021/03/27 08:10:31;;;;;;;3.25;1.17;;;8.60;63.10;;;;;;5052831;28;20028;-67
2021/03/27 08:12:57;;;;;;;4.50;0.85;;;8.70;62.40;;;;;;5052076;28;20111;-67
2021/03/27 08:15:55;;;;;;;2.95;0.73;;;8.60;60.80;;;;;;5051678;28;20437;-67
2021/03/27 08:18:56;;;;;;;3.17;0.70;;;8.40;61.40;;;;;;5050311;28;20035;-67
2021/03/27 08:21:39;;;;;;;2.45;0.70;;;8.40;61.10;;;;;;5043185;28;20174;-69
2021/03/27 08:24:25;;;;;;;0.95;0.75;;;8.30;60.90;;;;;;5051669;28;20028;-67
2021/03/27 08:27:18;;;;;;;1.75;0.70;;;8.20;61.00;;;;;;5052222;28;20154;-68
2021/03/27 08:29:53;;;;;;;;;;;8.20;60.70;;;;;;5045635;28;20055;-66
2021/03/27 08:32:46;;;;;;;2.63;0.75;;;8.10;60.50;;;;;;5052645;28;19912;-67
2021/03/27 08:35:31;;;;;;;2.00;0.90;;;8.10;60.90;;;;;;5040467;28;20039;-67
2021/03/27 08:38:15;;;;;;;2.80;0.80;;;8.10;60.70;;;;;;5068549;28;20511;-67
2021/03/27 08:40:47;;;;;;;3.33;1.02;;;8.00;61.00;;;;;;5051729;28;20083;-67
2021/03/27 08:43:34;;;;;;;2.70;1.00;;;8.10;61.00;;;;;;5051792;28;20480;-66
2021/03/27 08:46:09;;;;;;;0.77;0.68;;;8.20;61.00;;;;;;5052073;28;20029;-67
2021/03/27 08:49:04;;;;;;;3.78;1.13;;;8.20;61.00;;;;;;5052165;28;20026;-68
2021/03/27 08:52:00;;;;;;;1.73;0.80;;;8.20;60.40;;;;;;4980931;28;20069;-68
2021/03/27 08:54:44;;;;;;;0.93;0.80;;;8.30;60.50;;;;;;5050667;28;20077;-68
2021/03/27 08:57:47;;;;;;;2.85;1.10;;;8.40;60.10;;;;;;5054000;28;20064;-67
2021/03/27 09:00:31;;;;;;;1.25;0.60;;;8.70;59.70;;;;;;5077037;28;20443;-67
2021/03/27 09:03:22;;;;;;;3.60;1.00;;;8.80;59.10;;;;;;5055272;28;20024;-67
2021/03/27 09:05:56;;;;;;;2.65;0.90;;;10.00;56.50;;;;;;5055755;28;20028;-67
2021/03/27 09:09:07;;;;;;;1.02;0.75;;;10.90;54.00;;;;;;5056254;28;20021;-67
2021/03/27 09:11:44;;;;;;;1.20;0.60;;;11.40;52.10;;;;;;5053227;28;20107;-68
2021/03/27 09:14:25;;;;;;;2.35;0.70;;;12.10;52.00;;;;;;5055344;28;20024;-67
2021/03/27 09:17:26;;;;;;;2.28;0.70;;;12.10;50.40;;;;;;5055934;28;20730;-67
2021/03/27 09:20:05;;;;;;;2.00;0.70;;;12.00;50.30;;;;;;5074268;28;20498;-67
2021/03/27 09:22:42;;;;;;;6.47;3.40;;;12.50;49.00;;;;;;5055183;28;20033;-67
2021/03/27 09:26:05;;;;;;;1.38;0.63;;;12.30;50.20;;;;;;5050840;28;20024;-66
2021/03/27 09:28:34;;;;;;;1.63;0.70;;;12.40;49.60;;;;;;4970938;28;20031;-66
2021/03/27 09:31:50;;;;;;;1.35;0.60;;;11.80;49.40;;;;;;4968097;28;20031;-66
2021/03/27 09:34:24;;;;;;;1.88;0.50;;;11.10;49.80;;;;;;5051579;28;20045;-66
2021/03/27 09:37:43;;;;;;;3.33;0.70;;;10.80;50.60;;;;;;5056569;28;20027;-66
2021/03/27 09:40:23;;;;;;;0.82;0.50;;;10.50;52.00;;;;;;4978253;28;20038;-66
2021/03/27 09:42:58;;;;;;;0.70;0.70;;;10.70;51.80;;;;;;5040584;28;20033;-66
2021/03/27 09:46:09;;;;;;;3.55;0.75;;;11.30;49.90;;;;;;5045910;28;20502;-68
2021/03/27 09:49:12;;;;;;;1.55;0.60;;;11.80;49.20;;;;;;5055085;28;20038;-68
2021/03/27 09:52:02;;;;;;;2.47;0.80;;;12.10;49.40;;;;;;5055675;28;20020;-67
2021/03/27 09:54:36;;;;;;;2.00;0.50;;;12.10;48.10;;;;;;5054152;28;20115;-68
2021/03/27 09:57:17;;;;;;;2.65;0.85;;;11.80;48.40;;;;;;5051226;28;20564;-68
2021/03/27 09:59:57;;;;;;;0.75;0.50;;;11.20;49.10;;;;;;5046642;28;20036;-68
2021/03/27 10:02:38;;;;;;;3.67;0.82;;;11.00;50.60;;;;;;5046593;28;20063;-67
2021/03/27 10:05:45;;;;;;;2.05;0.60;;;10.70;49.90;;;;;;5053969;28;20029;-67
2021/03/27 10:08:14;;;;;;;4.90;0.70;;;10.50;50.60;;;;;;5054819;28;20024;-67
2021/03/27 10:11:07;;;;;;;1.45;0.75;;;10.30;48.50;;;;;;5072735;28;20036;-67
2021/03/27 10:14:14;;;;;;;2.33;1.00;;;10.20;48.50;;;;;;5053555;28;20119;-68
2021/03/27 10:17:13;;;;;;;2.35;0.70;;;10.20;49.10;;;;;;5053818;28;20032;-67
2021/03/27 10:19:59;;;;;;;1.92;0.63;;;10.60;48.60;;;;;;5053561;28;20105;-67
2021/03/27 10:22:40;;;;;;;20.73;3.15;;;10.90;47.10;;;;;;5055125;28;20461;-67
2021/03/27 10:25:27;;;;;;;5.65;0.70;;;11.20;47.20;;;;;;5053134;28;20032;-68
2021/03/27 10:28:24;;;;;;;2.33;0.70;;;11.40;45.70;;;;;;5046058;28;20025;-68
2021/03/27 10:30:58;;;;;;;1.92;0.68;;;11.60;45.90;;;;;;5036364;28;20564;-68
2021/03/27 10:33:45;;;;;;;1.50;0.60;;;11.60;45.60;;;;;;5053559;28;20021;-67
2021/03/27 10:36:30;;;;;;;6.93;1.00;;;11.40;46.20;;;;;;5052216;28;20100;-68
2021/03/27 10:38:55;;;;;;;3.65;0.80;;;11.40;46.70;;;;;;5057810;28;20103;-68
2021/03/27 10:41:39;;;;;;;3.00;0.90;;;11.60;46.80;;;;;;5054806;28;20457;-68
2021/03/27 10:44:11;;;;;;;1.77;0.68;;;11.60;46.20;;;;;;5053689;28;20078;-68
2021/03/27 10:46:43;;;;;;;3.75;0.77;;;11.70;45.20;;;;;;5054689;28;20044;-68
2021/03/27 10:49:24;;;;;;;1.90;0.60;;;11.70;45.10;;;;;;5054525;28;20381;-68
2021/03/27 10:52:14;;;;;;;1.80;0.80;;;11.80;45.90;;;;;;5054666;28;20550;-69
2021/03/27 10:54:58;;;;;;;3.75;0.60;;;11.70;45.40;;;;;;5053439;28;20035;-68
2021/03/27 10:57:45;;;;;;;3.25;0.75;;;11.80;45.30;;;;;;5050947;28;20083;-68
2021/03/27 11:00:49;;;;;;;1.67;0.68;;;11.70;45.40;;;;;;5063819;28;20029;-68
2021/03/27 11:03:20;;;;;;;3.22;0.70;;;11.70;45.40;;;;;;5053670;28;20025;-67
2021/03/27 11:06:23;;;;;;;2.08;0.70;;;11.70;44.40;;;;;;5053628;28;20028;-68
2021/03/27 11:09:08;;;;;;;;;;;11.80;45.50;;;;;;5054510;28;20476;-68
2021/03/27 11:11:33;;;;;;;1.38;0.60;;;12.10;45.70;;;;;;5053682;28;19936;-68
2021/03/27 11:14:36;;;;;;;1.65;0.40;;;12.40;45.50;;;;;;5070625;28;20060;-67
2021/03/27 11:17:17;;;;;;;4.25;0.55;;;12.50;45.20;;;;;;5034143;28;20082;-67
2021/03/27 11:20:11;;;;;;;3.67;0.70;;;12.50;43.90;;;;;;5065482;28;20481;-68
2021/03/27 11:22:56;;;;;;;1.65;0.63;;;12.50;41.40;;;;;;5020263;28;20037;-67
2021/03/27 11:25:49;;;;;;;2.20;0.70;;;12.40;42.10;;;;;;5051352;28;20024;-67
2021/03/27 11:28:46;;;;;;;2.53;0.52;;;12.20;41.50;;;;;;5069638;23;20477;-83
2021/03/27 11:31:15;;;;;;;1.50;0.77;;;12.10;42.30;;;;;;5074359;28;20012;-83
2021/03/27 11:33:58;;;;;;;1.17;0.50;;;12.10;43.00;;;;;;5074805;28;20025;-83
2021/03/27 11:36:37;;;;;;;2.83;0.80;;;12.10;42.10;;;;;;5082339;28;20077;-84
2021/03/27 11:39:41;;;;;;;1.60;0.80;;;12.10;42.60;;;;;;5051302;28;20111;-84
2021/03/27 11:42:18;;;;;;;2.60;0.60;;;12.00;42.70;;;;;;5026014;28;20051;-84
2021/03/27 11:44:55;;;;;;;6.88;0.80;;;11.90;42.20;;;;;;5038751;28;20025;-84
2021/03/27 11:47:50;;;;;;;2.70;0.70;;;11.80;42.70;;;;;;5039524;28;20021;-84
2021/03/27 11:50:16;;;;;;;3.92;0.63;;;11.60;42.90;;;;;;5040098;28;20118;-84
2021/03/27 11:53:04;;;;;;;2.17;0.60;;;11.50;43.00;;;;;;5042130;28;20024;-86
2021/03/27 11:55:47;;;;;;;1.90;0.57;;;11.40;42.90;;;;;;5072162;28;20092;-86
2021/03/27 12:01:42;;;;;;;1.98;0.70;;;11.40;42.10;;;;;;5069381;28;20095;-85
2021/03/27 12:04:37;;;;;;;4.75;1.27;;;11.30;42.20;;;;;;5041730;28;20040;-85
2021/03/27 12:07:12;;;;;;;3.63;0.90;;;11.30;41.70;;;;;;5038736;28;20475;-85
2021/03/27 12:09:49;;;;;;;2.17;0.80;;;11.30;41.60;;;;;;5038422;28;20079;-84
2021/03/27 12:12:41;;;;;;;2.78;1.00;;;11.30;42.10;;;;;;5055221;28;20114;-84
2021/03/27 12:15:15;;;;;;;1.75;0.90;;;11.40;41.90;;;;;;5038674;28;20096;-85
2021/03/27 12:18:04;;;;;;;0.98;0.98;;;11.60;41.30;;;;;;5056949;28;20100;-85
2021/03/27 12:20:42;;;;;;;6.15;1.55;;;11.70;40.50;;;;;;5039506;28;20051;-85
2021/03/27 12:23:20;;;;;;;0.68;0.57;;;11.80;39.30;;;;;;5037678;28;20028;-85
2021/03/27 12:25:53;;;;;;;4.60;1.90;;;11.80;39.60;;;;;;5039206;28;20047;-86
2021/03/27 12:28:24;;;;;;;;;;;12.10;39.70;;;;;;5040115;28;20025;-85
2021/03/27 12:31:08;;;;;;;1.38;0.65;;;12.10;39.80;;;;;;5042392;28;19913;-85
2021/03/27 12:34:02;;;;;;;1.67;0.70;;;12.10;39.20;;;;;;5019476;28;20487;-85
2021/03/27 12:37:00;;;;;;;2.42;0.60;;;12.10;39.50;;;;;;5038171;28;20025;-85
2021/03/27 12:39:39;;;;;;;1.95;0.70;;;12.00;39.50;;;;;;5064966;28;20053;-85
2021/03/27 12:42:23;;;;;;;0.80;0.60;;;12.00;40.20;;;;;;5040943;28;20032;-85
2021/03/27 12:45:01;;;;;;;5.75;1.00;;;12.10;40.60;;;;;;5040374;28;20021;-84
2021/03/27 12:48:05;;;;;;;3.83;0.90;;;12.10;40.90;;;;;;5042246;28;20422;-83
2021/03/27 12:50:56;;;;;;;1.50;0.70;;;11.90;40.30;;;;;;5030376;28;20510;-84
2021/03/27 12:53:51;;;;;;;1.25;0.63;;;11.80;40.80;;;;;;5042479;28;20029;-84
2021/03/27 12:57:02;;;;;;;2.75;0.77;;;11.80;40.90;;;;;;5042218;28;20085;-84
2021/03/27 13:00:09;;;;;;;3.60;0.88;;;11.70;41.00;;;;;;5049716;28;20044;-84
2021/03/27 13:02:59;;;;;;;2.28;1.08;;;11.60;40.10;;;;;;5058183;28;20067;-84
2021/03/27 13:05:47;;;;;;;2.42;0.90;;;11.50;40.50;;;;;;5061299;28;20021;-84
2021/03/27 13:08:16;;;;;;;2.13;1.00;;;11.50;40.50;;;;;;5063216;28;20028;-83
2021/03/27 13:10:46;;;;;;;2.47;0.93;;;11.70;41.20;;;;;;5040938;28;20422;-83
2021/03/27 13:13:18;;;;;;;3.80;1.20;;;11.70;41.00;;;;;;5039543;28;20021;-84
2021/03/27 13:16:17;;;;;;;2.63;0.85;;;11.80;41.10;;;;;;5041757;28;20053;-84
2021/03/27 13:19:06;;;;;;;1.10;0.80;;;11.90;41.00;;;;;;5040808;28;20033;-84
2021/03/27 13:21:43;;;;;;;1.70;0.57;;;11.90;41.30;;;;;;5041251;28;20132;-84
2021/03/27 13:24:21;;;;;;;4.05;0.90;;;12.00;41.00;;;;;;5040152;28;20103;-84
2021/03/27 13:26:51;;;;;;;1.52;0.60;;;12.20;40.10;;;;;;5057292;28;20490;-83
2021/03/27 13:29:32;;;;;;;3.50;1.08;;;12.20;40.00;;;;;;5040979;28;20246;-84
2021/03/27 13:32:19;;;;;;;1.13;0.40;;;12.20;39.30;;;;;;5034438;28;20056;-84
2021/03/27 13:34:54;;;;;;;1.73;0.50;;;12.10;40.00;;;;;;5038823;28;20048;-84
2021/03/27 13:37:36;;;;;;;2.58;0.60;;;12.00;40.70;;;;;;5046659;28;20028;-84
2021/03/27 13:40:20;;;;;;;4.38;0.60;;;12.00;40.50;;;;;;5039262;28;20033;-84
2021/03/27 13:43:07;;;;;;;2.53;0.80;;;11.90;40.40;;;;;;5039911;28;20028;-85
2021/03/27 13:45:48;;;;;;;1.80;0.50;;;12.00;39.90;;;;;;5039042;28;20075;-85
2021/03/27 13:48:29;;;;;;;2.88;0.55;;;12.00;40.00;;;;;;5039359;28;20128;-84
2021/03/27 13:51:13;;;;;;;7.50;1.52;;;12.20;40.10;;;;;;5040612;28;20025;-84
2021/03/27 13:54:29;;;;;;;2.90;0.80;;;12.10;39.70;;;;;;5039792;28;20031;-84
2021/03/27 13:57:14;;;;;;;4.63;0.70;;;12.00;39.70;;;;;;4938477;29;20435;-84
2021/03/27 14:00:02;;;;;;;1.67;1.05;;;11.90;39.80;;;;;;5047259;28;20517;-84
2021/03/27 14:03:08;;;;;;;3.85;0.80;;;11.70;39.60;;;;;;5057692;28;20020;-84
2021/03/27 14:06:12;;;;;;;2.67;0.68;;;11.60;40.30;;;;;;5040517;28;20021;-83
2021/03/27 14:09:15;;;;;;;2.95;0.88;;;11.50;40.80;;;;;;5040459;28;20021;-85
2021/03/27 14:11:52;;;;;;;3.80;0.85;;;11.50;40.70;;;;;;5058380;28;20071;-84
2021/03/27 14:14:24;;;;;;;3.50;0.82;;;11.40;41.10;;;;;;5040253;28;20498;-85
2021/03/27 14:17:24;;;;;;;2.33;0.60;;;11.30;41.10;;;;;;5040713;28;20025;-85
2021/03/27 14:20:43;;;;;;;3.50;0.80;;;11.20;41.60;;;;;;5039441;28;20033;-84
2021/03/27 14:23:23;;;;;;;2.90;0.90;;;11.20;42.20;;;;;;4957413;28;20031;-84
2021/03/27 14:26:15;;;;;;;4.97;0.80;;;11.20;42.80;;;;;;5057046;28;20094;-84